sensor_id;sensor_type;location;lat;lon;timestamp;P1;durP1;ratioP1;P2;durP2;ratioP2
16770;SDS011;8503;52.472;13.344;2022-11-24T00:00:03;44.42;;;20.33;;
16770;SDS011;8503;52.472;13.344;2022-11-24T00:01:28;50.47;;;21.45;;
16770;SDS011;8503;52.472;13.344;2022-11-24T00:02:52;49.42;;;18.27;;
16770;SDS011;8503;52.472;13.344;2022-11-24T00:04:16;38.58;;;17.58;;
16770;SDS011;8503;52.472;13.344;2022-11-24T00:05:40;48.08;;;20.88;;
16770;SDS011;8503;52.472;13.344;2022-11-24T00:07:02;43.78;;;19.35;;
16770;SDS011;8503;52.472;13.344;2022-11-24T00:08:26;48.35;;;21.40;;
16770;SDS011;8503;52.472;13.344;2022-11-24T00:09:48;53.42;;;19.88;;
16770;SDS011;8503;52.472;13.344;2022-11-24T00:11:12;46.00;;;16.38;;
16770;SDS011;8503;52.472;13.344;2022-11-24T00:12:36;51.53;;;20.70;;
16770;SDS011;8503;52.472;13.344;2022-11-24T00:14:00;54.90;;;20.17;;
16770;SDS011;8503;52.472;13.344;2022-11-24T00:15:24;50.90;;;19.85;;
16770;SDS011;8503;52.472;13.344;2022-11-24T00:16:47;40.35;;;17.00;;
16770;SDS011;8503;52.472;13.344;2022-11-24T00:18:10;56.75;;;20.85;;
16770;SDS011;8503;52.472;13.344;2022-11-24T00:19:34;43.58;;;16.30;;
16770;SDS011;8503;52.472;13.344;2022-11-24T00:20:57;53.25;;;20.13;;
16770;SDS011;8503;52.472;13.344;2022-11-24T00:22:20;64.80;;;17.48;;
16770;SDS011;8503;52.472;13.344;2022-11-24T00:23:43;69.18;;;18.73;;
16770;SDS011;8503;52.472;13.344;2022-11-24T00:25:07;67.72;;;20.15;;
16770;SDS011;8503;52.472;13.344;2022-11-24T00:26:30;67.05;;;19.08;;
16770;SDS011;8503;52.472;13.344;2022-11-24T00:27:54;69.07;;;20.65;;
16770;SDS011;8503;52.472;13.344;2022-11-24T00:29:18;45.15;;;15.45;;
16770;SDS011;8503;52.472;13.344;2022-11-24T00:30:41;61.80;;;16.40;;
16770;SDS011;8503;52.472;13.344;2022-11-24T00:32:04;68.22;;;19.75;;
16770;SDS011;8503;52.472;13.344;2022-11-24T00:33:27;41.22;;;16.55;;
16770;SDS011;8503;52.472;13.344;2022-11-24T00:34:51;45.53;;;14.68;;
16770;SDS011;8503;52.472;13.344;2022-11-24T00:36:14;79.57;;;19.88;;
16770;SDS011;8503;52.472;13.344;2022-11-24T00:37:39;28.75;;;13.13;;
16770;SDS011;8503;52.472;13.344;2022-11-24T00:39:02;68.00;;;18.58;;
16770;SDS011;8503;52.472;13.344;2022-11-24T00:40:26;51.85;;;17.70;;
16770;SDS011;8503;52.472;13.344;2022-11-24T00:41:55;55.55;;;18.67;;
16770;SDS011;8503;52.472;13.344;2022-11-24T00:43:18;49.60;;;19.15;;
16770;SDS011;8503;52.472;13.344;2022-11-24T00:44:40;61.30;;;15.57;;
16770;SDS011;8503;52.472;13.344;2022-11-24T00:46:04;59.70;;;19.55;;
16770;SDS011;8503;52.472;13.344;2022-11-24T00:47:27;73.85;;;17.10;;
16770;SDS011;8503;52.472;13.344;2022-11-24T00:48:53;39.00;;;13.60;;
16770;SDS011;8503;52.472;13.344;2022-11-24T00:50:17;51.75;;;16.20;;
16770;SDS011;8503;52.472;13.344;2022-11-24T00:51:41;44.20;;;13.77;;
16770;SDS011;8503;52.472;13.344;2022-11-24T00:53:04;44.50;;;15.48;;
16770;SDS011;8503;52.472;13.344;2022-11-24T00:54:27;77.50;;;17.38;;
16770;SDS011;8503;52.472;13.344;2022-11-24T00:55:51;39.50;;;14.40;;
16770;SDS011;8503;52.472;13.344;2022-11-24T00:57:14;44.70;;;12.60;;
16770;SDS011;8503;52.472;13.344;2022-11-24T00:58:37;40.88;;;14.90;;
16770;SDS011;8503;52.472;13.344;2022-11-24T01:00:00;84.22;;;20.25;;
16770;SDS011;8503;52.472;13.344;2022-11-24T01:01:23;47.50;;;17.70;;
16770;SDS011;8503;52.472;13.344;2022-11-24T01:02:48;96.82;;;19.08;;
16770;SDS011;8503;52.472;13.344;2022-11-24T01:04:10;57.65;;;14.45;;
16770;SDS011;8503;52.472;13.344;2022-11-24T01:05:36;62.25;;;17.63;;
16770;SDS011;8503;52.472;13.344;2022-11-24T01:06:58;59.67;;;16.45;;
16770;SDS011;8503;52.472;13.344;2022-11-24T01:08:22;17.90;;;9.13;;
16770;SDS011;8503;52.472;13.344;2022-11-24T01:09:45;46.22;;;15.55;;
16770;SDS011;8503;52.472;13.344;2022-11-24T01:11:08;45.53;;;14.93;;
16770;SDS011;8503;52.472;13.344;2022-11-24T01:12:33;67.65;;;19.00;;
16770;SDS011;8503;52.472;13.344;2022-11-24T01:13:56;76.38;;;18.42;;
16770;SDS011;8503;52.472;13.344;2022-11-24T01:15:20;43.35;;;15.20;;
16770;SDS011;8503;52.472;13.344;2022-11-24T01:16:42;52.20;;;18.80;;
16770;SDS011;8503;52.472;13.344;2022-11-24T01:18:06;65.63;;;17.10;;
16770;SDS011;8503;52.472;13.344;2022-11-24T01:19:29;51.65;;;16.33;;
16770;SDS011;8503;52.472;13.344;2022-11-24T01:20:53;33.80;;;15.43;;
16770;SDS011;8503;52.472;13.344;2022-11-24T01:22:16;63.45;;;19.85;;
16770;SDS011;8503;52.472;13.344;2022-11-24T01:23:40;43.70;;;14.80;;
16770;SDS011;8503;52.472;13.344;2022-11-24T01:25:04;45.08;;;14.23;;
16770;SDS011;8503;52.472;13.344;2022-11-24T01:26:27;33.63;;;13.15;;
16770;SDS011;8503;52.472;13.344;2022-11-24T01:27:50;44.58;;;14.70;;
16770;SDS011;8503;52.472;13.344;2022-11-24T01:29:13;63.25;;;19.10;;
16770;SDS011;8503;52.472;13.344;2022-11-24T01:30:36;76.85;;;18.92;;
16770;SDS011;8503;52.472;13.344;2022-11-24T01:31:59;82.53;;;17.92;;
16770;SDS011;8503;52.472;13.344;2022-11-24T01:33:23;20.13;;;9.73;;
16770;SDS011;8503;52.472;13.344;2022-11-24T01:34:45;69.00;;;19.50;;
16770;SDS011;8503;52.472;13.344;2022-11-24T01:36:10;56.50;;;16.83;;
16770;SDS011;8503;52.472;13.344;2022-11-24T01:37:33;57.70;;;15.82;;
16770;SDS011;8503;52.472;13.344;2022-11-24T01:38:56;73.95;;;17.85;;
16770;SDS011;8503;52.472;13.344;2022-11-24T01:40:19;69.30;;;19.40;;
16770;SDS011;8503;52.472;13.344;2022-11-24T01:41:42;78.43;;;20.00;;
16770;SDS011;8503;52.472;13.344;2022-11-24T01:43:13;76.43;;;19.05;;
16770;SDS011;8503;52.472;13.344;2022-11-24T01:44:37;71.63;;;21.83;;
16770;SDS011;8503;52.472;13.344;2022-11-24T01:46:03;64.15;;;19.45;;
16770;SDS011;8503;52.472;13.344;2022-11-24T01:47:32;64.25;;;21.55;;
16770;SDS011;8503;52.472;13.344;2022-11-24T01:49:00;69.20;;;21.67;;
16770;SDS011;8503;52.472;13.344;2022-11-24T01:50:27;61.70;;;19.80;;
16770;SDS011;8503;52.472;13.344;2022-11-24T01:51:52;71.05;;;20.38;;
16770;SDS011;8503;52.472;13.344;2022-11-24T01:53:19;76.28;;;21.52;;
16770;SDS011;8503;52.472;13.344;2022-11-24T01:54:44;59.47;;;21.38;;
16770;SDS011;8503;52.472;13.344;2022-11-24T01:56:10;74.82;;;20.02;;
16770;SDS011;8503;52.472;13.344;2022-11-24T01:57:34;54.45;;;20.90;;
16770;SDS011;8503;52.472;13.344;2022-11-24T01:58:59;45.80;;;19.20;;
16770;SDS011;8503;52.472;13.344;2022-11-24T02:00:24;51.13;;;20.60;;
16770;SDS011;8503;52.472;13.344;2022-11-24T02:01:47;49.10;;;18.02;;
16770;SDS011;8503;52.472;13.344;2022-11-24T02:03:12;57.65;;;19.10;;
16770;SDS011;8503;52.472;13.344;2022-11-24T02:04:36;62.28;;;19.25;;
16770;SDS011;8503;52.472;13.344;2022-11-24T02:06:02;56.88;;;20.90;;
16770;SDS011;8503;52.472;13.344;2022-11-24T02:07:28;54.08;;;20.92;;
16770;SDS011;8503;52.472;13.344;2022-11-24T02:08:53;67.90;;;19.90;;
16770;SDS011;8503;52.472;13.344;2022-11-24T02:10:17;49.13;;;20.33;;
16770;SDS011;8503;52.472;13.344;2022-11-24T02:11:41;67.07;;;20.23;;
16770;SDS011;8503;52.472;13.344;2022-11-24T02:13:05;53.42;;;20.17;;
16770;SDS011;8503;52.472;13.344;2022-11-24T02:14:27;46.10;;;17.05;;
16770;SDS011;8503;52.472;13.344;2022-11-24T02:15:51;51.72;;;20.48;;
16770;SDS011;8503;52.472;13.344;2022-11-24T02:17:14;62.53;;;20.08;;
16770;SDS011;8503;52.472;13.344;2022-11-24T02:18:37;69.63;;;22.13;;
16770;SDS011;8503;52.472;13.344;2022-11-24T02:20:02;54.78;;;20.02;;
16770;SDS011;8503;52.472;13.344;2022-11-24T02:21:27;62.45;;;20.83;;
16770;SDS011;8503;52.472;13.344;2022-11-24T02:22:52;60.25;;;19.65;;
16770;SDS011;8503;52.472;13.344;2022-11-24T02:24:19;50.78;;;17.85;;
16770;SDS011;8503;52.472;13.344;2022-11-24T02:25:49;53.10;;;18.58;;
16770;SDS011;8503;52.472;13.344;2022-11-24T02:27:18;46.83;;;19.67;;
16770;SDS011;8503;52.472;13.344;2022-11-24T02:28:41;51.67;;;20.30;;
16770;SDS011;8503;52.472;13.344;2022-11-24T02:30:05;45.30;;;18.73;;
16770;SDS011;8503;52.472;13.344;2022-11-24T02:31:28;53.72;;;20.98;;
16770;SDS011;8503;52.472;13.344;2022-11-24T02:32:51;46.92;;;19.23;;
16770;SDS011;8503;52.472;13.344;2022-11-24T02:34:15;44.17;;;15.25;;
16770;SDS011;8503;52.472;13.344;2022-11-24T02:35:37;57.83;;;17.95;;
16770;SDS011;8503;52.472;13.344;2022-11-24T02:37:01;39.92;;;17.60;;
16770;SDS011;8503;52.472;13.344;2022-11-24T02:38:27;53.80;;;19.50;;
16770;SDS011;8503;52.472;13.344;2022-11-24T02:39:52;45.60;;;17.33;;
16770;SDS011;8503;52.472;13.344;2022-11-24T02:41:16;47.55;;;16.40;;
16770;SDS011;8503;52.472;13.344;2022-11-24T02:42:42;42.28;;;16.77;;
16770;SDS011;8503;52.472;13.344;2022-11-24T02:44:07;44.30;;;15.10;;
16770;SDS011;8503;52.472;13.344;2022-11-24T02:45:30;30.52;;;14.85;;
16770;SDS011;8503;52.472;13.344;2022-11-24T02:47:00;46.75;;;15.25;;
16770;SDS011;8503;52.472;13.344;2022-11-24T02:48:24;55.40;;;19.08;;
16770;SDS011;8503;52.472;13.344;2022-11-24T02:49:48;57.92;;;20.20;;
16770;SDS011;8503;52.472;13.344;2022-11-24T02:51:12;45.90;;;18.58;;
16770;SDS011;8503;52.472;13.344;2022-11-24T02:52:35;55.28;;;18.08;;
16770;SDS011;8503;52.472;13.344;2022-11-24T02:53:59;47.60;;;14.85;;
16770;SDS011;8503;52.472;13.344;2022-11-24T02:55:22;61.05;;;18.35;;
16770;SDS011;8503;52.472;13.344;2022-11-24T02:56:45;49.90;;;15.13;;
16770;SDS011;8503;52.472;13.344;2022-11-24T02:58:09;50.40;;;17.85;;
16770;SDS011;8503;52.472;13.344;2022-11-24T02:59:35;41.72;;;17.42;;
16770;SDS011;8503;52.472;13.344;2022-11-24T03:00:57;51.22;;;18.02;;
16770;SDS011;8503;52.472;13.344;2022-11-24T03:02:20;49.90;;;15.70;;
16770;SDS011;8503;52.472;13.344;2022-11-24T03:03:43;42.63;;;16.25;;
16770;SDS011;8503;52.472;13.344;2022-11-24T03:05:07;47.22;;;19.38;;
16770;SDS011;8503;52.472;13.344;2022-11-24T03:06:32;52.30;;;18.13;;
16770;SDS011;8503;52.472;13.344;2022-11-24T03:07:55;45.33;;;17.70;;
16770;SDS011;8503;52.472;13.344;2022-11-24T03:09:18;50.30;;;18.17;;
16770;SDS011;8503;52.472;13.344;2022-11-24T03:10:42;47.05;;;20.67;;
16770;SDS011;8503;52.472;13.344;2022-11-24T03:12:04;50.72;;;20.60;;
16770;SDS011;8503;52.472;13.344;2022-11-24T03:13:29;51.72;;;20.40;;
16770;SDS011;8503;52.472;13.344;2022-11-24T03:14:53;58.63;;;20.23;;
16770;SDS011;8503;52.472;13.344;2022-11-24T03:16:16;75.85;;;20.40;;
16770;SDS011;8503;52.472;13.344;2022-11-24T03:17:40;66.53;;;19.10;;
16770;SDS011;8503;52.472;13.344;2022-11-24T03:19:02;51.53;;;21.58;;
16770;SDS011;8503;52.472;13.344;2022-11-24T03:20:26;63.30;;;20.38;;
16770;SDS011;8503;52.472;13.344;2022-11-24T03:21:49;45.85;;;21.13;;
16770;SDS011;8503;52.472;13.344;2022-11-24T03:23:13;89.18;;;20.98;;
16770;SDS011;8503;52.472;13.344;2022-11-24T03:24:35;41.33;;;19.17;;
16770;SDS011;8503;52.472;13.344;2022-11-24T03:26:06;62.15;;;18.50;;
16770;SDS011;8503;52.472;13.344;2022-11-24T03:27:30;58.00;;;18.38;;
16770;SDS011;8503;52.472;13.344;2022-11-24T03:28:54;65.45;;;20.13;;
16770;SDS011;8503;52.472;13.344;2022-11-24T03:30:18;46.67;;;20.23;;
16770;SDS011;8503;52.472;13.344;2022-11-24T03:31:40;60.95;;;19.85;;
16770;SDS011;8503;52.472;13.344;2022-11-24T03:33:04;54.05;;;20.50;;
16770;SDS011;8503;52.472;13.344;2022-11-24T03:34:27;47.80;;;20.02;;
16770;SDS011;8503;52.472;13.344;2022-11-24T03:35:51;67.55;;;21.27;;
16770;SDS011;8503;52.472;13.344;2022-11-24T03:37:14;47.17;;;19.88;;
16770;SDS011;8503;52.472;13.344;2022-11-24T03:38:37;60.10;;;17.92;;
16770;SDS011;8503;52.472;13.344;2022-11-24T03:40:01;30.77;;;12.77;;
16770;SDS011;8503;52.472;13.344;2022-11-24T03:41:24;63.90;;;18.33;;
16770;SDS011;8503;52.472;13.344;2022-11-24T03:42:47;52.90;;;17.73;;
16770;SDS011;8503;52.472;13.344;2022-11-24T03:44:12;39.88;;;15.80;;
16770;SDS011;8503;52.472;13.344;2022-11-24T03:45:34;54.42;;;17.45;;
16770;SDS011;8503;52.472;13.344;2022-11-24T03:47:06;67.20;;;19.73;;
16770;SDS011;8503;52.472;13.344;2022-11-24T03:48:29;70.35;;;20.27;;
16770;SDS011;8503;52.472;13.344;2022-11-24T03:49:52;57.33;;;14.73;;
16770;SDS011;8503;52.472;13.344;2022-11-24T03:51:16;44.40;;;15.15;;
16770;SDS011;8503;52.472;13.344;2022-11-24T03:52:38;44.60;;;16.65;;
16770;SDS011;8503;52.472;13.344;2022-11-24T03:54:01;80.15;;;19.40;;
16770;SDS011;8503;52.472;13.344;2022-11-24T03:55:24;66.53;;;19.33;;
16770;SDS011;8503;52.472;13.344;2022-11-24T03:56:47;64.53;;;18.80;;
16770;SDS011;8503;52.472;13.344;2022-11-24T03:58:11;51.72;;;16.88;;
16770;SDS011;8503;52.472;13.344;2022-11-24T03:59:36;48.28;;;15.90;;
16770;SDS011;8503;52.472;13.344;2022-11-24T04:00:59;33.65;;;13.88;;
16770;SDS011;8503;52.472;13.344;2022-11-24T04:02:22;42.45;;;17.02;;
16770;SDS011;8503;52.472;13.344;2022-11-24T04:03:45;75.03;;;18.33;;
16770;SDS011;8503;52.472;13.344;2022-11-24T04:05:09;45.92;;;16.50;;
16770;SDS011;8503;52.472;13.344;2022-11-24T04:06:31;55.65;;;17.58;;
16770;SDS011;8503;52.472;13.344;2022-11-24T04:07:55;42.92;;;14.90;;
16770;SDS011;8503;52.472;13.344;2022-11-24T04:09:18;44.42;;;17.77;;
16770;SDS011;8503;52.472;13.344;2022-11-24T04:10:42;46.58;;;15.60;;
16770;SDS011;8503;52.472;13.344;2022-11-24T04:12:04;58.95;;;17.80;;
16770;SDS011;8503;52.472;13.344;2022-11-24T04:13:46;59.70;;;16.65;;
16770;SDS011;8503;52.472;13.344;2022-11-24T04:15:14;59.80;;;17.70;;
16770;SDS011;8503;52.472;13.344;2022-11-24T04:16:38;61.20;;;17.45;;
16770;SDS011;8503;52.472;13.344;2022-11-24T04:18:00;38.17;;;13.48;;
16770;SDS011;8503;52.472;13.344;2022-11-24T04:19:24;61.45;;;14.63;;
16770;SDS011;8503;52.472;13.344;2022-11-24T04:20:47;61.78;;;17.13;;
16770;SDS011;8503;52.472;13.344;2022-11-24T04:22:11;51.50;;;16.30;;
16770;SDS011;8503;52.472;13.344;2022-11-24T04:23:33;67.38;;;17.63;;
16770;SDS011;8503;52.472;13.344;2022-11-24T04:24:56;51.92;;;12.85;;
16770;SDS011;8503;52.472;13.344;2022-11-24T04:26:19;53.55;;;15.73;;
16770;SDS011;8503;52.472;13.344;2022-11-24T04:27:42;64.82;;;17.15;;
16770;SDS011;8503;52.472;13.344;2022-11-24T04:29:06;62.05;;;17.50;;
16770;SDS011;8503;52.472;13.344;2022-11-24T04:30:30;45.35;;;17.23;;
16770;SDS011;8503;52.472;13.344;2022-11-24T04:31:54;63.85;;;17.55;;
16770;SDS011;8503;52.472;13.344;2022-11-24T04:33:16;44.30;;;13.75;;
16770;SDS011;8503;52.472;13.344;2022-11-24T04:34:40;61.38;;;16.33;;
16770;SDS011;8503;52.472;13.344;2022-11-24T04:36:02;62.08;;;16.02;;
16770;SDS011;8503;52.472;13.344;2022-11-24T04:37:26;37.45;;;12.57;;
16770;SDS011;8503;52.472;13.344;2022-11-24T04:38:50;59.60;;;14.85;;
16770;SDS011;8503;52.472;13.344;2022-11-24T04:40:34;42.45;;;16.25;;
16770;SDS011;8503;52.472;13.344;2022-11-24T04:41:58;52.42;;;16.77;;
16770;SDS011;8503;52.472;13.344;2022-11-24T04:43:20;50.05;;;19.17;;
16770;SDS011;8503;52.472;13.344;2022-11-24T04:44:44;48.78;;;19.63;;
16770;SDS011;8503;52.472;13.344;2022-11-24T04:46:08;50.20;;;19.15;;
16770;SDS011;8503;52.472;13.344;2022-11-24T04:47:32;38.17;;;17.98;;
16770;SDS011;8503;52.472;13.344;2022-11-24T04:48:54;47.33;;;19.52;;
16770;SDS011;8503;52.472;13.344;2022-11-24T04:50:18;31.77;;;12.88;;
16770;SDS011;8503;52.472;13.344;2022-11-24T04:51:42;41.03;;;15.43;;
16770;SDS011;8503;52.472;13.344;2022-11-24T04:53:04;33.88;;;15.55;;
16770;SDS011;8503;52.472;13.344;2022-11-24T04:54:28;37.30;;;14.85;;
16770;SDS011;8503;52.472;13.344;2022-11-24T04:55:50;54.05;;;15.55;;
16770;SDS011;8503;52.472;13.344;2022-11-24T04:57:14;38.60;;;15.20;;
16770;SDS011;8503;52.472;13.344;2022-11-24T04:58:37;47.70;;;16.13;;
16770;SDS011;8503;52.472;13.344;2022-11-24T05:00:00;61.90;;;17.92;;
16770;SDS011;8503;52.472;13.344;2022-11-24T05:01:26;54.83;;;15.05;;
16770;SDS011;8503;52.472;13.344;2022-11-24T05:02:49;36.95;;;13.77;;
16770;SDS011;8503;52.472;13.344;2022-11-24T05:04:13;53.40;;;16.05;;
16770;SDS011;8503;52.472;13.344;2022-11-24T05:05:36;55.80;;;17.52;;
16770;SDS011;8503;52.472;13.344;2022-11-24T05:06:59;79.55;;;15.38;;
16770;SDS011;8503;52.472;13.344;2022-11-24T05:08:22;63.40;;;16.98;;
16770;SDS011;8503;52.472;13.344;2022-11-24T05:09:45;50.17;;;16.05;;
16770;SDS011;8503;52.472;13.344;2022-11-24T05:11:26;53.28;;;16.73;;
16770;SDS011;8503;52.472;13.344;2022-11-24T05:12:52;42.97;;;16.98;;
16770;SDS011;8503;52.472;13.344;2022-11-24T05:14:15;37.75;;;11.52;;
16770;SDS011;8503;52.472;13.344;2022-11-24T05:15:39;37.58;;;15.82;;
16770;SDS011;8503;52.472;13.344;2022-11-24T05:17:03;35.28;;;9.65;;
16770;SDS011;8503;52.472;13.344;2022-11-24T05:18:27;39.30;;;14.77;;
16770;SDS011;8503;52.472;13.344;2022-11-24T05:19:49;41.08;;;16.02;;
16770;SDS011;8503;52.472;13.344;2022-11-24T05:21:12;48.03;;;15.30;;
16770;SDS011;8503;52.472;13.344;2022-11-24T05:22:35;52.28;;;16.35;;
16770;SDS011;8503;52.472;13.344;2022-11-24T05:23:59;42.33;;;14.43;;
16770;SDS011;8503;52.472;13.344;2022-11-24T05:25:23;42.35;;;15.27;;
16770;SDS011;8503;52.472;13.344;2022-11-24T05:26:45;42.33;;;14.70;;
16770;SDS011;8503;52.472;13.344;2022-11-24T05:28:09;40.08;;;14.55;;
16770;SDS011;8503;52.472;13.344;2022-11-24T05:29:32;49.33;;;14.45;;
16770;SDS011;8503;52.472;13.344;2022-11-24T05:30:57;35.42;;;12.80;;
16770;SDS011;8503;52.472;13.344;2022-11-24T05:32:23;48.30;;;15.75;;
16770;SDS011;8503;52.472;13.344;2022-11-24T05:33:45;41.33;;;16.25;;
16770;SDS011;8503;52.472;13.344;2022-11-24T05:35:09;52.75;;;16.35;;
16770;SDS011;8503;52.472;13.344;2022-11-24T05:36:31;51.75;;;17.02;;
16770;SDS011;8503;52.472;13.344;2022-11-24T05:38:24;40.45;;;13.52;;
16770;SDS011;8503;52.472;13.344;2022-11-24T05:39:47;32.92;;;15.93;;
16770;SDS011;8503;52.472;13.344;2022-11-24T05:41:10;44.20;;;15.60;;
16770;SDS011;8503;52.472;13.344;2022-11-24T05:42:34;49.70;;;16.02;;
16770;SDS011;8503;52.472;13.344;2022-11-24T05:44:08;34.45;;;15.70;;
16770;SDS011;8503;52.472;13.344;2022-11-24T05:45:31;46.22;;;16.85;;
16770;SDS011;8503;52.472;13.344;2022-11-24T05:46:55;35.03;;;16.50;;
16770;SDS011;8503;52.472;13.344;2022-11-24T05:48:18;36.47;;;16.15;;
16770;SDS011;8503;52.472;13.344;2022-11-24T05:49:42;34.75;;;15.75;;
16770;SDS011;8503;52.472;13.344;2022-11-24T05:51:04;31.70;;;15.20;;
16770;SDS011;8503;52.472;13.344;2022-11-24T05:52:29;34.60;;;14.32;;
16770;SDS011;8503;52.472;13.344;2022-11-24T05:53:52;51.40;;;13.90;;
16770;SDS011;8503;52.472;13.344;2022-11-24T05:55:15;40.95;;;14.27;;
16770;SDS011;8503;52.472;13.344;2022-11-24T05:56:41;65.00;;;15.05;;
16770;SDS011;8503;52.472;13.344;2022-11-24T05:58:05;44.80;;;14.48;;
16770;SDS011;8503;52.472;13.344;2022-11-24T05:59:29;27.80;;;10.00;;
16770;SDS011;8503;52.472;13.344;2022-11-24T06:00:51;43.00;;;14.55;;
16770;SDS011;8503;52.472;13.344;2022-11-24T06:02:15;41.33;;;15.50;;
16770;SDS011;8503;52.472;13.344;2022-11-24T06:03:39;51.40;;;13.93;;
16770;SDS011;8503;52.472;13.344;2022-11-24T06:05:03;32.03;;;14.57;;
16770;SDS011;8503;52.472;13.344;2022-11-24T06:06:26;47.22;;;15.95;;
16770;SDS011;8503;52.472;13.344;2022-11-24T06:07:50;47.30;;;15.25;;
16770;SDS011;8503;52.472;13.344;2022-11-24T06:09:14;44.85;;;14.60;;
16770;SDS011;8503;52.472;13.344;2022-11-24T06:10:37;30.15;;;12.15;;
16770;SDS011;8503;52.472;13.344;2022-11-24T06:12:01;34.92;;;12.88;;
16770;SDS011;8503;52.472;13.344;2022-11-24T06:13:23;41.42;;;16.73;;
16770;SDS011;8503;52.472;13.344;2022-11-24T06:14:47;60.40;;;13.65;;
16770;SDS011;8503;52.472;13.344;2022-11-24T06:16:11;71.38;;;15.68;;
16770;SDS011;8503;52.472;13.344;2022-11-24T06:17:35;41.55;;;12.77;;
16770;SDS011;8503;52.472;13.344;2022-11-24T06:19:00;35.42;;;8.45;;
16770;SDS011;8503;52.472;13.344;2022-11-24T06:20:22;72.03;;;13.10;;
16770;SDS011;8503;52.472;13.344;2022-11-24T06:21:52;53.95;;;14.85;;
16770;SDS011;8503;52.472;13.344;2022-11-24T06:23:16;52.72;;;14.15;;
16770;SDS011;8503;52.472;13.344;2022-11-24T06:24:39;43.60;;;14.85;;
16770;SDS011;8503;52.472;13.344;2022-11-24T06:26:03;56.28;;;13.73;;
16770;SDS011;8503;52.472;13.344;2022-11-24T06:27:26;54.78;;;14.07;;
16770;SDS011;8503;52.472;13.344;2022-11-24T06:28:50;47.28;;;12.20;;
16770;SDS011;8503;52.472;13.344;2022-11-24T06:30:13;60.33;;;14.73;;
16770;SDS011;8503;52.472;13.344;2022-11-24T06:31:37;41.55;;;13.55;;
16770;SDS011;8503;52.472;13.344;2022-11-24T06:33:00;41.10;;;15.25;;
16770;SDS011;8503;52.472;13.344;2022-11-24T06:34:24;42.35;;;15.10;;
16770;SDS011;8503;52.472;13.344;2022-11-24T06:35:48;48.70;;;14.45;;
16770;SDS011;8503;52.472;13.344;2022-11-24T06:37:10;44.55;;;15.65;;
16770;SDS011;8503;52.472;13.344;2022-11-24T06:38:34;32.55;;;13.60;;
16770;SDS011;8503;52.472;13.344;2022-11-24T06:39:57;46.67;;;15.80;;
16770;SDS011;8503;52.472;13.344;2022-11-24T06:41:21;38.50;;;14.25;;
16770;SDS011;8503;52.472;13.344;2022-11-24T06:42:48;42.97;;;14.25;;
16770;SDS011;8503;52.472;13.344;2022-11-24T06:44:12;45.60;;;16.17;;
16770;SDS011;8503;52.472;13.344;2022-11-24T06:45:35;44.53;;;15.90;;
16770;SDS011;8503;52.472;13.344;2022-11-24T06:46:58;53.83;;;15.55;;
16770;SDS011;8503;52.472;13.344;2022-11-24T06:48:22;50.38;;;15.02;;
16770;SDS011;8503;52.472;13.344;2022-11-24T06:49:46;35.95;;;13.43;;
16770;SDS011;8503;52.472;13.344;2022-11-24T06:51:10;39.15;;;14.70;;
16770;SDS011;8503;52.472;13.344;2022-11-24T06:52:37;33.83;;;13.18;;
16770;SDS011;8503;52.472;13.344;2022-11-24T06:54:00;31.88;;;13.95;;
16770;SDS011;8503;52.472;13.344;2022-11-24T06:55:27;36.88;;;15.48;;
16770;SDS011;8503;52.472;13.344;2022-11-24T06:56:54;32.50;;;13.30;;
16770;SDS011;8503;52.472;13.344;2022-11-24T06:58:18;30.23;;;12.98;;
16770;SDS011;8503;52.472;13.344;2022-11-24T06:59:41;45.08;;;14.88;;
16770;SDS011;8503;52.472;13.344;2022-11-24T07:01:04;39.47;;;15.07;;
16770;SDS011;8503;52.472;13.344;2022-11-24T07:02:28;29.75;;;12.20;;
16770;SDS011;8503;52.472;13.344;2022-11-24T07:03:53;45.42;;;14.57;;
16770;SDS011;8503;52.472;13.344;2022-11-24T07:05:18;68.90;;;14.27;;
16770;SDS011;8503;52.472;13.344;2022-11-24T07:06:41;31.55;;;14.30;;
16770;SDS011;8503;52.472;13.344;2022-11-24T07:08:05;39.35;;;15.32;;
16770;SDS011;8503;52.472;13.344;2022-11-24T07:09:27;35.97;;;13.95;;
16770;SDS011;8503;52.472;13.344;2022-11-24T07:10:51;30.60;;;13.43;;
16770;SDS011;8503;52.472;13.344;2022-11-24T07:12:14;33.10;;;14.63;;
16770;SDS011;8503;52.472;13.344;2022-11-24T07:13:38;29.75;;;13.18;;
16770;SDS011;8503;52.472;13.344;2022-11-24T07:15:01;32.13;;;13.23;;
16770;SDS011;8503;52.472;13.344;2022-11-24T07:16:25;29.90;;;13.35;;
16770;SDS011;8503;52.472;13.344;2022-11-24T07:17:49;31.52;;;14.27;;
16770;SDS011;8503;52.472;13.344;2022-11-24T07:19:12;31.08;;;14.45;;
16770;SDS011;8503;52.472;13.344;2022-11-24T07:20:46;31.23;;;14.63;;
16770;SDS011;8503;52.472;13.344;2022-11-24T07:22:09;33.00;;;14.23;;
16770;SDS011;8503;52.472;13.344;2022-11-24T07:23:32;28.70;;;14.82;;
16770;SDS011;8503;52.472;13.344;2022-11-24T07:24:56;44.00;;;15.52;;
16770;SDS011;8503;52.472;13.344;2022-11-24T07:26:19;28.70;;;14.23;;
16770;SDS011;8503;52.472;13.344;2022-11-24T07:27:43;35.80;;;15.07;;
16770;SDS011;8503;52.472;13.344;2022-11-24T07:29:06;35.88;;;13.68;;
16770;SDS011;8503;52.472;13.344;2022-11-24T07:30:30;37.78;;;14.13;;
16770;SDS011;8503;52.472;13.344;2022-11-24T07:31:53;29.88;;;13.38;;
16770;SDS011;8503;52.472;13.344;2022-11-24T07:33:25;31.15;;;14.48;;
16770;SDS011;8503;52.472;13.344;2022-11-24T07:34:48;32.97;;;14.45;;
16770;SDS011;8503;52.472;13.344;2022-11-24T07:36:13;29.55;;;14.38;;
16770;SDS011;8503;52.472;13.344;2022-11-24T07:37:37;28.58;;;14.20;;
16770;SDS011;8503;52.472;13.344;2022-11-24T07:39:00;28.77;;;13.50;;
16770;SDS011;8503;52.472;13.344;2022-11-24T07:40:24;41.22;;;14.82;;
16770;SDS011;8503;52.472;13.344;2022-11-24T07:41:48;36.80;;;13.88;;
16770;SDS011;8503;52.472;13.344;2022-11-24T07:43:11;32.80;;;13.82;;
16770;SDS011;8503;52.472;13.344;2022-11-24T07:44:40;30.42;;;13.18;;
16770;SDS011;8503;52.472;13.344;2022-11-24T07:46:04;29.92;;;13.98;;
16770;SDS011;8503;52.472;13.344;2022-11-24T07:47:28;34.15;;;15.55;;
16770;SDS011;8503;52.472;13.344;2022-11-24T07:48:52;32.95;;;14.70;;
16770;SDS011;8503;52.472;13.344;2022-11-24T07:50:16;32.28;;;15.07;;
16770;SDS011;8503;52.472;13.344;2022-11-24T07:51:41;30.95;;;15.50;;
16770;SDS011;8503;52.472;13.344;2022-11-24T07:53:04;27.88;;;13.57;;
16770;SDS011;8503;52.472;13.344;2022-11-24T07:54:27;29.15;;;13.02;;
16770;SDS011;8503;52.472;13.344;2022-11-24T07:55:53;28.73;;;13.90;;
16770;SDS011;8503;52.472;13.344;2022-11-24T07:57:17;31.08;;;14.27;;
16770;SDS011;8503;52.472;13.344;2022-11-24T07:58:40;27.55;;;12.23;;
16770;SDS011;8503;52.472;13.344;2022-11-24T08:00:11;29.83;;;14.52;;
16770;SDS011;8503;52.472;13.344;2022-11-24T08:01:35;29.30;;;13.90;;
16770;SDS011;8503;52.472;13.344;2022-11-24T08:02:59;33.58;;;14.35;;
16770;SDS011;8503;52.472;13.344;2022-11-24T08:04:23;29.10;;;14.68;;
16770;SDS011;8503;52.472;13.344;2022-11-24T08:05:52;36.80;;;15.60;;
16770;SDS011;8503;52.472;13.344;2022-11-24T08:07:37;25.08;;;11.70;;
16770;SDS011;8503;52.472;13.344;2022-11-24T08:09:00;28.63;;;14.15;;
16770;SDS011;8503;52.472;13.344;2022-11-24T08:10:24;31.60;;;14.07;;
16770;SDS011;8503;52.472;13.344;2022-11-24T08:11:47;28.55;;;14.07;;